Anaheim Hills, California
Current Conditions -  °F | °C
As of 12:56 PM on Wednesday 26 Nov 2014 (Local Time) from KAJO Reporting Station
Clear Clear  
Wind Chill: 90°   Ceiling: Unl
Heat Index: 90°   Visibility: 10mi
Dew Point: 18°   Wind: 6mph
Humidity: 7%   Direction: 110°ESE
Pressure: 30.16"   Gusts: NA
Location:  33.8431°N, 117.777°W
Report Text: KAJO 262056Z AUTO 11005KT 10SM CLR 32/M08 A3016 RMK AO2 58035 T03221077 SLP207 $
Loading
Personal Weather Stations






























Interactive Weather Map New forecast layout! Learn more

10-Day Weather Forecast

Advertisements
Track Severe Weather on mobile